Terminal Aerodrome Forecast
Issued by NWS

Home | Current Version | Previous Version | Text Only | Print | Product List | Glossary On
Versions: 1 2 3 4 5 6 7 8 9 10 11 12 13 14
000
FTUS45 KTFX 230520
TAFBZN
TAF
KBZN 230520Z 2306/2412 35007KT 6SM -RA SCT008 OVC020
     FM230900 31009KT 2SM RA SCT008 OVC015
     FM231400 04010KT 4SM -RASN SCT008 OVC015
     FM231800 04008KT P6SM -RASN SCT008 OVC025
     FM240000 05007KT P6SM SCT015 BKN050=

USA.gov is the U.S. government's official web portal to all federal, state and local government web resources and services.